Pagina principale
METAR-TAF:

METAR-TAF

Aeroporti :

Salak

Maroua, Camerun

latitudine: 10-27N, longitudine: 014-15E, altezza: 423 m

Osservazione

Il bollettino è stato emesso 8 ore e 23 minuti fa, alle 15:00 UTC
Vento 8 kt da nord-est, variando fra nord e sud-est
Temperature 32°C
Umidità 16%
Pressione 1012 hPa
Visibilità 10 km o più
nessuna nube inferiore a 1500 m e nessun cumulonembo

METAR: FKKL 221500Z 04008KT 350V130 CAVOK 32/03 Q1012

Ora: 00:23 (23:23 UTC)

Previsione

Il bollettino è stato emesso 12 ore e 23 minuti fa, alle 11:00 UTC
Previsione valida dal 22 alle 12 UTC al 22 alle 24 UTC
Vento 8 kt da direzioni variabili
Visibilità: 6000 m

TAF: FKKL 221100Z 2212/2224 VRB08KT 6000 NSC

Osservazioni e previsioni meteorologiche di più di 4000 aeroporti (messaggi METAR e TAF).

Le stazioni disponibili sono rappresentate dai dischi gialli e rossi sulla carta.

Puntare il mouse per vedere il nome della stazione.

Clicca sopra per visualizzare le osservazioni e previsioni meteorologiche.

Per cambiare la mappa : fare clic sui pulsanti verdi con una croce nera per ingrandire, il pulsante verde con un trattino per diminuire, o sulla freccia verde per le mappe adiacenti.


METAR-TAF: